Time;durP1;ratioP1;P1;durP2;ratioP2;P2;SDS_P1;SDS_P2;PMS_P1;PMS_P2;Temp;Humidity;BMP_temperature;BMP_pressure;BME280_temperature;BME280_humidity;BME280_pressure;Samples;Min_cycle;Max_cycle;Signal;HPM_P1;HPM_P2
2022/09/14 00:02:45;;;;;;;;;;;24.90;48.80;23.80;100468.00;;;;5094725;28;19963;-66
2022/09/14 00:05:33;;;;;;;;;;;24.90;48.80;23.80;100465.00;;;;5099271;28;19912;-66
2022/09/14 00:08:19;;;;;;;;;;;24.90;48.80;23.80;100460.00;;;;5096930;28;19923;-66
2022/09/14 00:11:06;;;;;;;;;;;24.90;48.90;23.80;100472.00;;;;5095792;28;20311;-67
2022/09/14 00:13:52;;;;;;;;;;;24.90;48.90;23.80;100470.00;;;;5102349;27;19938;-66
2022/09/14 00:16:39;;;;;;;;;;;24.90;48.90;23.80;100468.00;;;;5096359;27;19918;-66
2022/09/14 00:19:25;;;;;;;;;;;24.90;48.90;23.70;100472.00;;;;5091820;28;19947;-66
2022/09/14 00:22:11;;;;;;;;;;;24.90;48.80;23.70;100462.00;;;;5096486;28;19911;-66
2022/09/14 00:24:57;;;;;;;;;;;25.00;49.00;23.70;100475.00;;;;5093027;27;20273;-67
2022/09/14 00:27:43;;;;;;;;;;;24.90;48.90;23.70;100471.00;;;;5101273;27;20364;-67
2022/09/14 00:30:29;;;;;;;;;;;24.90;48.90;23.70;100464.00;;;;5095104;28;19919;-66
2022/09/14 00:33:15;;;;;;;;;;;24.90;48.90;23.70;100461.00;;;;5095438;28;20364;-66
2022/09/14 00:36:24;;;;;;;;;;;24.80;48.80;23.70;100457.00;;;;5085620;28;19916;-66
2022/09/14 00:39:10;;;;;;;;;;;24.80;48.90;23.70;100447.00;;;;5095616;28;20521;-66
2022/09/14 00:41:57;;;;;;;;;;;24.80;48.90;23.70;100445.00;;;;5068696;28;19912;-66
2022/09/14 00:44:43;;;;;;;;;;;24.80;48.90;23.70;100441.00;;;;5097321;28;19918;-66
2022/09/14 00:47:29;;;;;;;;;;;24.80;48.90;23.70;100450.00;;;;5100857;28;20243;-66
2022/09/14 00:50:16;;;;;;;;;;;24.80;48.90;23.70;100450.00;;;;5100138;27;19916;-66
2022/09/14 00:53:02;;;;;;;;;;;24.80;48.90;23.70;100442.00;;;;5088126;28;19911;-66
2022/09/14 00:55:50;;;;;;;;;;;24.80;48.90;23.70;100436.00;;;;5087048;28;20257;-66
2022/09/14 00:58:36;;;;;;;;;;;24.80;48.90;23.70;100430.00;;;;5099529;28;19937;-66
2022/09/14 01:01:22;;;;;;;;;;;24.80;48.90;23.70;100426.00;;;;5107446;27;19922;-66
2022/09/14 01:04:08;;;;;;;;;;;24.80;48.90;23.60;100428.00;;;;5094396;28;19928;-67
2022/09/14 01:07:21;;;;;;;;;;;24.80;48.90;23.60;100428.00;;;;5091179;28;19986;-66
2022/09/14 01:10:15;;;;;;;;;;;24.80;48.90;23.60;100427.00;;;;5086488;28;20308;-66
2022/09/14 01:13:16;;;;;;;;;;;24.80;49.00;23.60;100430.00;;;;5089756;28;20226;-66
2022/09/14 01:16:16;;;;;;;;;;;24.80;49.00;23.60;100421.00;;;;5089131;28;19919;-66
2022/09/14 01:19:09;;;;;;;;;;;24.80;49.00;23.60;100416.00;;;;5097789;28;20128;-66
2022/09/14 01:21:55;;;;;;;;;;;24.80;49.00;23.60;100414.00;;;;5083703;28;19920;-66
2022/09/14 01:24:47;;;;;;;;;;;24.70;48.90;23.60;100410.00;;;;5085302;28;19915;-66
2022/09/14 01:27:40;;;;;;;;;;;24.70;48.90;23.60;100402.00;;;;5088310;28;19961;-66
2022/09/14 01:30:27;;;;;;;;;;;24.70;48.90;23.60;100412.00;;;;5081655;28;19912;-66
2022/09/14 01:33:14;;;;;;;;;;;24.80;49.00;23.60;100417.00;;;;5106803;28;19954;-66
2022/09/14 01:36:01;;;;;;;;;;;24.70;48.90;23.60;100416.00;;;;5090983;28;20292;-67
2022/09/14 01:38:48;;;;;;;;;;;24.70;48.90;23.60;100404.00;;;;5110078;28;20315;-66
2022/09/14 01:41:34;;;;;;;;;;;24.70;48.90;23.60;100397.00;;;;5112396;28;19966;-66
2022/09/14 01:44:24;;;;;;;;;;;24.70;49.00;23.50;100389.00;;;;5083513;28;20254;-66
2022/09/14 01:47:40;;;;;;;;;;;24.70;49.00;23.50;100388.00;;;;5110946;27;19932;-66
2022/09/14 01:50:30;;;;;;;;;;;24.70;49.00;23.50;100387.00;;;;5087847;28;19912;-66
2022/09/14 01:53:44;;;;;;;;;;;24.70;49.00;23.50;100393.00;;;;5082124;28;19934;-66
2022/09/14 01:56:37;;;;;;;;;;;24.60;49.60;23.50;100404.00;;;;5107069;28;20010;-67
2022/09/14 01:59:29;;;;;;;;;;;24.60;49.00;23.50;100398.00;;;;5087336;28;20018;-66
2022/09/14 02:02:27;;;;;;;;;;;24.60;48.90;23.50;100404.00;;;;5078704;28;20433;-67
2022/09/14 02:05:31;;;;;;;;;;;24.50;48.90;23.50;100398.00;;;;5084974;27;19922;-66
2022/09/14 02:08:17;;;;;;;;;;;24.60;49.00;23.50;100395.00;;;;5082169;27;19912;-66
2022/09/14 02:11:03;;;;;;;;;;;24.60;49.00;23.50;100392.00;;;;5105939;27;19950;-66
2022/09/14 02:13:49;;;;;;;;;;;24.60;49.00;23.50;100384.00;;;;5098215;27;19920;-66
2022/09/14 02:16:35;;;;;;;;;;;24.60;49.00;23.50;100382.00;;;;5098596;27;19912;-66
2022/09/14 02:19:21;;;;;;;;;;;24.60;49.00;23.40;100380.00;;;;5101112;28;19915;-66
2022/09/14 02:22:07;;;;;;;;;;;24.60;49.00;23.40;100379.00;;;;5084659;28;20545;-66
2022/09/14 02:24:53;;;;;;;;;;;24.60;49.00;23.40;100388.00;;;;5103201;27;19916;-67
2022/09/14 02:27:39;;;;;;;;;;;24.50;49.00;23.40;100389.00;;;;5094864;27;19966;-66
2022/09/14 02:30:25;;;;;;;;;;;24.40;48.90;23.40;100392.00;;;;5102423;27;19916;-67
2022/09/14 02:33:24;;;;;;;;;;;24.60;49.00;23.40;100382.00;;;;5085537;27;19915;-67
2022/09/14 02:36:41;;;;;;;;;;;24.50;49.00;23.40;100380.00;;;;5087498;28;19912;-67
2022/09/14 02:39:47;;;;;;;;;;;24.60;49.00;23.40;100371.00;;;;5099480;27;19923;-66
2022/09/14 02:42:58;;;;;;;;;;;24.50;49.00;23.30;100362.00;;;;5107097;27;19988;-66
2022/09/14 02:46:16;;;;;;;;;;;24.50;49.00;23.30;100355.00;;;;5094829;27;19916;-66
2022/09/14 02:49:15;;;;;;;;;;;24.50;49.00;23.30;100352.00;;;;5093646;28;19912;-66
2022/09/14 02:52:07;;;;;;;;;;;24.50;49.00;23.30;100343.00;;;;5071687;28;20404;-67
2022/09/14 02:55:01;;;;;;;;;;;24.40;49.00;23.30;100337.00;;;;5079760;28;20272;-67
2022/09/14 02:58:04;;;;;;;;;;;24.40;49.10;23.30;100332.00;;;;5086627;27;20365;-66
2022/09/14 03:00:50;;;;;;;;;;;24.40;49.00;23.30;100336.00;;;;5098794;27;20352;-66
2022/09/14 03:03:36;;;;;;;;;;;24.40;49.00;23.30;100326.00;;;;5093448;28;19912;-66
2022/09/14 03:06:22;;;;;;;;;;;24.40;49.00;23.30;100335.00;;;;5097871;27;20339;-66
2022/09/14 03:09:08;;;;;;;;;;;24.50;49.10;23.30;100340.00;;;;5088244;28;20345;-66
2022/09/14 03:11:54;;;;;;;;;;;24.40;49.00;23.30;100347.00;;;;5098444;28;19919;-66
2022/09/14 03:14:40;;;;;;;;;;;24.40;49.00;23.30;100335.00;;;;5096096;28;19912;-66
2022/09/14 03:17:26;;;;;;;;;;;24.40;49.00;23.30;100342.00;;;;5096100;28;19924;-67
2022/09/14 03:20:16;;;;;;;;;;;24.40;49.00;23.30;100338.00;;;;5098004;27;19916;-66
2022/09/14 03:23:03;;;;;;;;;;;24.40;49.00;23.30;100337.00;;;;5077307;28;19919;-66
2022/09/14 03:25:49;;;;;;;;;;;24.40;49.10;23.30;100333.00;;;;5096336;27;19998;-66
2022/09/14 03:28:35;;;;;;;;;;;24.40;49.00;23.30;100336.00;;;;5095763;28;20002;-66
2022/09/14 03:31:21;;;;;;;;;;;24.40;49.10;23.30;100320.00;;;;5093599;27;19968;-66
2022/09/14 03:34:08;;;;;;;;;;;24.40;49.00;23.20;100321.00;;;;5087542;28;19962;-66
2022/09/14 03:36:54;;;;;;;;;;;24.40;49.00;23.30;100324.00;;;;5068682;28;19919;-66
2022/09/14 03:39:40;;;;;;;;;;;24.40;49.10;23.30;100326.00;;;;5096304;28;20334;-66
2022/09/14 03:42:26;;;;;;;;;;;24.40;49.10;23.30;100322.00;;;;5100284;27;20324;-66
2022/09/14 03:45:12;;;;;;;;;;;24.40;49.00;23.30;100320.00;;;;5097200;28;19916;-66
2022/09/14 03:47:58;;;;;;;;;;;24.40;49.00;23.20;100318.00;;;;5082936;28;19923;-67
2022/09/14 03:50:44;;;;;;;;;;;24.40;49.00;23.20;100317.00;;;;5101887;27;19916;-66
2022/09/14 03:53:30;;;;;;;;;;;24.40;49.00;23.20;100314.00;;;;5094074;27;20280;-66
2022/09/14 03:56:18;;;;;;;;;;;24.40;49.00;23.20;100306.00;;;;5099188;27;19915;-66
2022/09/14 03:59:04;;;;;;;;;;;24.30;49.00;23.20;100308.00;;;;5098881;27;20006;-66
2022/09/14 04:01:50;;;;;;;;;;;24.40;49.10;23.20;100305.00;;;;5079755;28;19920;-66
2022/09/14 04:04:36;;;;;;;;;;;24.40;49.00;23.20;100302.00;;;;5100489;27;19923;-66
2022/09/14 04:07:22;;;;;;;;;;;24.40;49.00;23.20;100305.00;;;;5096356;27;19919;-66
2022/09/14 04:10:08;;;;;;;;;;;24.30;48.90;23.20;100304.00;;;;5101097;27;19920;-66
2022/09/14 04:12:54;;;;;;;;;;;24.40;49.00;23.20;100296.00;;;;5085660;28;19957;-66
2022/09/14 04:15:40;;;;;;;;;;;24.40;49.00;23.20;100292.00;;;;5096873;27;19912;-66
2022/09/14 04:18:26;;;;;;;;;;;24.40;49.00;23.20;100301.00;;;;5094065;27;19912;-66
2022/09/14 04:21:16;;;;;;;;;;;24.40;49.00;23.20;100287.00;;;;5103588;27;20399;-66
2022/09/14 04:24:02;;;;;;;;;;;24.40;49.00;23.20;100288.00;;;;5086430;28;19911;-66
2022/09/14 04:26:48;;;;;;;;;;;24.40;49.00;23.20;100285.00;;;;5093716;27;19918;-66
2022/09/14 04:29:34;;;;;;;;;;;24.40;49.00;23.20;100288.00;;;;5098206;28;19919;-66
2022/09/14 04:32:20;;;;;;;;;;;24.40;49.70;23.20;100281.00;;;;5104398;27;19915;-66
2022/09/14 04:35:06;;;;;;;;;;;24.30;49.00;23.20;100282.00;;;;5093553;28;19912;-67
2022/09/14 04:37:53;;;;;;;;;;;24.30;49.00;23.20;100295.00;;;;5103087;27;20300;-66
2022/09/14 04:40:40;;;;;;;;;;;24.30;49.00;23.20;100293.00;;;;5102907;27;20388;-66
2022/09/14 04:43:26;;;;;;;;;;;24.40;49.00;23.20;100289.00;;;;5107644;27;19960;-66
2022/09/14 04:46:25;;;;;;;;;;;24.30;48.90;23.10;100292.00;;;;5097983;28;19915;-66
2022/09/14 04:49:11;;;;;;;;;;;24.40;49.00;23.10;100286.00;;;;5096208;27;20261;-66
2022/09/14 04:51:57;;;;;;;;;;;24.30;48.90;23.10;100286.00;;;;5087768;27;20361;-66
2022/09/14 04:54:43;;;;;;;;;;;24.30;48.90;23.10;100284.00;;;;5095964;27;20258;-66
2022/09/14 04:57:31;;;;;;;;;;;24.30;48.90;23.10;100278.00;;;;5103229;27;20265;-66
2022/09/14 05:00:17;;;;;;;;;;;24.30;48.90;23.10;100273.00;;;;5101275;27;19920;-67
2022/09/14 05:03:03;;;;;;;;;;;24.30;48.90;23.10;100280.00;;;;5095614;27;19916;-66
2022/09/14 05:05:49;;;;;;;;;;;24.30;49.00;23.10;100271.00;;;;5090518;27;19934;-66
2022/09/14 05:08:37;;;;;;;;;;;24.20;48.90;23.10;100270.00;;;;5093557;28;19912;-66
2022/09/14 05:11:26;;;;;;;;;;;24.30;48.90;23.10;100267.00;;;;5096021;28;19962;-66
2022/09/14 05:14:12;;;;;;;;;;;24.30;48.90;23.10;100275.00;;;;5084438;28;20002;-66
2022/09/14 05:17:01;;;;;;;;;;;24.30;48.90;23.10;100265.00;;;;5092300;28;19912;-66
2022/09/14 05:19:47;;;;;;;;;;;24.20;48.80;23.10;100264.00;;;;5100846;28;19920;-66
2022/09/14 05:22:33;;;;;;;;;;;24.30;48.90;23.10;100267.00;;;;5098824;28;19919;-66
2022/09/14 05:25:19;;;;;;;;;;;24.20;48.80;23.10;100267.00;;;;5105831;28;19916;-66
2022/09/14 05:28:05;;;;;;;;;;;24.30;48.90;23.10;100270.00;;;;5094122;28;19911;-66
2022/09/14 05:30:51;;;;;;;;;;;24.30;48.90;23.10;100267.00;;;;5094139;28;19912;-66
2022/09/14 05:33:37;;;;;;;;;;;24.30;48.90;23.10;100266.00;;;;5100308;28;19934;-66
2022/09/14 05:36:23;;;;;;;;;;;24.30;48.90;23.10;100275.00;;;;5100926;28;20315;-66
2022/09/14 05:39:09;;;;;;;;;;;24.20;48.80;23.10;100260.00;;;;5085039;28;19994;-66
2022/09/14 05:41:55;;;;;;;;;;;24.20;48.70;23.10;100274.00;;;;5107200;27;20024;-66
2022/09/14 05:44:41;;;;;;;;;;;24.20;48.80;23.10;100273.00;;;;5102356;27;20319;-66
2022/09/14 05:47:28;;;;;;;;;;;24.20;48.80;23.10;100271.00;;;;5106204;27;20344;-66
2022/09/14 05:50:14;;;;;;;;;;;24.30;48.80;23.10;100261.00;;;;5096933;27;19990;-66
2022/09/14 05:53:00;;;;;;;;;;;24.20;48.80;23.10;100258.00;;;;5100292;27;19911;-66
2022/09/14 05:55:46;;;;;;;;;;;24.20;48.80;23.10;100256.00;;;;5096705;27;19965;-66
2022/09/14 05:58:32;;;;;;;;;;;24.20;48.80;23.10;100257.00;;;;5090245;27;19911;-66
2022/09/14 06:01:20;;;;;;;;;;;24.20;48.70;23.10;100256.00;;;;5089430;27;19912;-66
2022/09/14 06:04:07;;;;;;;;;;;24.20;48.70;23.10;100253.00;;;;5095555;27;19974;-66
2022/09/14 06:06:53;;;;;;;;;;;24.20;48.70;23.10;100261.00;;;;5085351;28;19912;-66
2022/09/14 06:09:39;;;;;;;;;;;24.20;48.80;23.10;100259.00;;;;5102011;27;19922;-67
2022/09/14 06:12:26;;;;;;;;;;;24.20;49.40;23.10;100262.00;;;;5104360;27;19923;-66
2022/09/14 06:15:12;;;;;;;;;;;24.20;48.70;23.10;100254.00;;;;5091251;27;20562;-66
2022/09/14 06:17:58;;;;;;;;;;;24.20;48.70;23.00;100260.00;;;;5095519;27;19911;-66
2022/09/14 06:20:50;;;;;;;;;;;24.20;48.70;23.00;100244.00;;;;5102234;27;19916;-66
2022/09/14 06:23:36;;;;;;;;;;;24.20;48.70;23.00;100241.00;;;;5098671;27;19922;-66
2022/09/14 06:26:23;;;;;;;;;;;24.10;48.60;23.00;100242.00;;;;5103056;27;20308;-66
2022/09/14 06:29:08;;;;;;;;;;;24.20;48.60;23.00;100252.00;;;;5090540;28;20014;-66
2022/09/14 06:31:54;;;;;;;;;;;24.20;48.60;23.00;100258.00;;;;5095915;27;19920;-66
2022/09/14 06:34:40;;;;;;;;;;;24.20;48.70;23.00;100250.00;;;;5101725;27;19973;-66
2022/09/14 06:37:26;;;;;;;;;;;24.30;48.70;23.00;100250.00;;;;5106478;27;19920;-66
2022/09/14 06:40:12;;;;;;;;;;;24.20;48.70;23.00;100244.00;;;;5099782;27;20283;-66
2022/09/14 06:43:01;;;;;;;;;;;24.20;48.60;23.00;100248.00;;;;5098301;27;20350;-66
2022/09/14 06:45:57;;;;;;;;;;;24.20;48.60;23.00;100241.00;;;;5099876;27;20370;-66
2022/09/14 06:48:48;;;;;;;;;;;24.20;48.60;23.00;100263.00;;;;5113082;27;19959;-66
2022/09/14 06:51:42;;;;;;;;;;;24.20;48.60;23.00;100263.00;;;;5102220;27;19994;-66
2022/09/14 06:54:28;;;;;;;;;;;24.20;48.60;23.10;100258.00;;;;5104733;27;19912;-66
2022/09/14 06:57:14;;;;;;;;;;;24.20;48.60;23.10;100256.00;;;;5102051;27;19927;-66
2022/09/14 07:00:01;;;;;;;;;;;24.20;48.60;23.10;100267.00;;;;5102457;27;19990;-66
2022/09/14 07:02:47;;;;;;;;;;;24.20;48.60;23.10;100264.00;;;;5101535;27;19915;-66
2022/09/14 07:05:33;;;;;;;;;;;24.20;48.60;23.10;100256.00;;;;5100027;27;20285;-66
2022/09/14 07:08:19;;;;;;;;;;;24.20;48.70;23.10;100257.00;;;;5089327;28;19934;-66
2022/09/14 07:11:05;;;;;;;;;;;24.20;48.60;23.10;100257.00;;;;5095166;28;20396;-66
2022/09/14 07:13:57;;;;;;;;;;;24.30;48.60;23.10;100264.00;;;;5101470;27;19995;-66
2022/09/14 07:16:43;;;;;;;;;;;24.30;48.60;23.10;100263.00;;;;5096596;27;19912;-66
2022/09/14 07:19:29;;;;;;;;;;;24.20;48.50;23.10;100258.00;;;;5099514;27;19924;-66
2022/09/14 07:22:15;;;;;;;;;;;24.30;48.60;23.10;100261.00;;;;5103558;27;20286;-66
2022/09/14 07:25:01;;;;;;;;;;;24.30;48.60;23.10;100265.00;;;;5073374;28;20385;-66
2022/09/14 07:27:47;;;;;;;;;;;24.20;48.50;23.10;100260.00;;;;5100155;27;19998;-66
2022/09/14 07:30:34;;;;;;;;;;;24.30;48.60;23.10;100253.00;;;;5093572;27;19912;-66
2022/09/14 07:33:20;;;;;;;;;;;24.30;48.60;23.10;100250.00;;;;5099556;27;19935;-66
2022/09/14 07:36:07;;;;;;;;;;;24.30;48.60;23.10;100244.00;;;;5082126;28;19926;-66
2022/09/14 07:38:53;;;;;;;;;;;24.30;48.50;23.10;100246.00;;;;5100979;27;20388;-66
2022/09/14 07:41:39;;;;;;;;;;;24.30;48.50;23.10;100252.00;;;;5104966;27;19911;-66
2022/09/14 07:44:25;;;;;;;;;;;24.30;48.50;23.10;100252.00;;;;5089278;27;19912;-67
2022/09/14 07:47:11;;;;;;;;;;;24.30;48.60;23.10;100257.00;;;;5101334;27;20656;-66
2022/09/14 07:49:57;;;;;;;;;;;24.30;48.50;23.10;100254.00;;;;5098564;27;20367;-66
2022/09/14 07:52:43;;;;;;;;;;;24.30;48.50;23.10;100259.00;;;;5094829;27;19916;-66
2022/09/14 07:55:29;;;;;;;;;;;24.40;48.60;23.10;100265.00;;;;5098854;27;19971;-66
2022/09/14 07:58:15;;;;;;;;;;;24.40;48.60;23.10;100255.00;;;;5100832;27;19912;-66
2022/09/14 08:01:07;;;;;;;;;;;24.40;48.60;23.10;100267.00;;;;5088426;28;19923;-66
2022/09/14 08:03:53;;;;;;;;;;;24.40;48.60;23.10;100272.00;;;;5115718;27;19957;-66
2022/09/14 08:06:39;;;;;;;;;;;24.30;48.50;23.10;100262.00;;;;5100401;27;19919;-66
2022/09/14 08:09:26;;;;;;;;;;;24.30;48.50;23.10;100264.00;;;;5101466;27;19916;-66
2022/09/14 08:12:14;;;;;;;;;;;24.40;48.50;23.10;100263.00;;;;5085814;27;19920;-66
2022/09/14 08:15:00;;;;;;;;;;;24.40;48.50;23.10;100257.00;;;;5097024;27;19912;-66
2022/09/14 08:17:47;;;;;;;;;;;24.40;48.50;23.10;100253.00;;;;5092517;27;19919;-66
2022/09/14 08:20:33;;;;;;;;;;;24.40;48.50;23.10;100248.00;;;;5096252;27;19920;-66
2022/09/14 08:23:19;;;;;;;;;;;24.40;48.50;23.10;100250.00;;;;5106066;27;19927;-66
2022/09/14 08:26:14;;;;;;;;;;;24.40;48.50;23.10;100257.00;;;;5097083;28;19915;-66
2022/09/14 08:29:00;;;;;;;;;;;24.30;48.50;23.10;100256.00;;;;5099476;27;19912;-66
2022/09/14 08:31:47;;;;;;;;;;;24.40;48.50;23.10;100247.00;;;;5097078;27;20386;-66
2022/09/14 08:34:33;;;;;;;;;;;24.40;48.50;23.10;100243.00;;;;5100736;27;19918;-66
2022/09/14 08:37:19;;;;;;;;;;;24.40;48.50;23.20;100246.00;;;;5098026;27;19915;-66
2022/09/14 08:40:05;;;;;;;;;;;24.40;48.50;23.20;100243.00;;;;5095924;28;19935;-66
2022/09/14 08:42:51;;;;;;;;;;;24.40;48.50;23.20;100235.00;;;;5113773;27;19969;-66
2022/09/14 08:45:39;;;;;;;;;;;24.40;48.50;23.20;100225.00;;;;5078308;27;20351;-66
2022/09/14 08:48:30;;;;;;;;;;;24.40;48.50;23.20;100224.00;;;;5084344;28;19918;-66
2022/09/14 08:51:17;;;;;;;;;;;24.40;48.50;23.20;100232.00;;;;5094840;28;19912;-66
2022/09/14 08:54:03;;;;;;;;;;;24.40;48.50;23.20;100225.00;;;;5101721;27;19968;-66
2022/09/14 08:56:55;;;;;;;;;;;24.40;48.40;23.20;100242.00;;;;5097275;28;20461;-66
2022/09/14 08:59:45;;;;;;;;;;;24.40;48.50;23.20;100233.00;;;;5078030;27;19998;-66
2022/09/14 09:02:52;;;;;;;;;;;24.40;48.50;23.20;100234.00;;;;5077413;28;20365;-66
2022/09/14 09:05:59;;;;;;;;;;;24.40;48.40;23.20;100234.00;;;;5096831;28;19918;-66
2022/09/14 09:09:23;;;;;;;;;;;24.40;48.50;23.20;100231.00;;;;5085784;28;20437;-66
2022/09/14 09:12:17;;;;;;;;;;;24.40;48.50;23.20;100222.00;;;;5079028;28;19912;-66
2022/09/14 09:15:14;;;;;;;;;;;24.40;48.50;23.20;100217.00;;;;5111966;27;20003;-66
2022/09/14 09:18:31;;;;;;;;;;;24.40;48.40;23.20;100220.00;;;;5073860;28;19916;-66
2022/09/14 09:21:30;;;;;;;;;;;24.40;48.40;23.20;100227.00;;;;5079715;28;19939;-66
2022/09/14 09:24:35;;;;;;;;;;;24.40;48.50;23.20;100228.00;;;;5081648;28;19919;-66
2022/09/14 09:27:22;;;;;;;;;;;24.50;48.50;23.20;100225.00;;;;5079932;28;20350;-66
2022/09/14 09:30:11;;;;;;;;;;;24.50;49.20;23.20;100229.00;;;;5093917;28;20391;-66
2022/09/14 09:32:57;;;;;;;;;;;24.40;48.50;23.20;100225.00;;;;5084097;28;20365;-66
2022/09/14 09:35:43;;;;;;;;;;;24.40;48.50;23.20;100229.00;;;;5087370;28;20273;-66
2022/09/14 09:38:29;;;;;;;;;;;24.40;48.50;23.20;100228.00;;;;5094329;28;20260;-66
2022/09/14 09:41:20;;;;;;;;;;;24.50;48.50;23.20;100221.00;;;;5093218;28;19928;-66
2022/09/14 09:44:10;;;;;;;;;;;24.50;48.50;23.20;100222.00;;;;5068524;28;19916;-66
2022/09/14 09:47:00;;;;;;;;;;;24.50;48.50;23.20;100214.00;;;;5092113;28;20285;-66
2022/09/14 09:49:46;;;;;;;;;;;24.50;48.40;23.20;100216.00;;;;5081357;28;19974;-66
2022/09/14 09:52:33;;;;;;;;;;;24.50;48.50;23.20;100207.00;;;;5080896;28;20383;-66
2022/09/14 09:55:20;;;;;;;;;;;24.50;48.40;23.20;100201.00;;;;5093818;28;20444;-66
2022/09/14 09:58:38;;;;;;;;;;;24.50;48.40;23.20;100209.00;;;;5070719;28;19919;-66
2022/09/14 10:01:32;;;;;;;;;;;24.50;48.40;23.30;100217.00;;;;5055474;28;19926;-66
2022/09/14 10:04:28;;;;;;;;;;;24.50;48.40;23.30;100219.00;;;;5084972;28;20448;-66
2022/09/14 10:07:21;;;;;;;;;;;24.60;48.50;23.30;100211.00;;;;5099148;28;20336;-66
2022/09/14 10:10:11;;;;;;;;;;;24.50;48.50;23.30;100212.00;;;;5093840;28;19920;-67
2022/09/14 10:12:57;;;;;;;;;;;24.50;48.40;23.30;100211.00;;;;5095907;28;19912;-66
2022/09/14 10:15:44;;;;;;;;;;;24.50;48.40;23.30;100214.00;;;;5103578;28;20276;-66
2022/09/14 10:18:30;;;;;;;;;;;24.50;48.40;23.30;100208.00;;;;5079560;28;19951;-67
2022/09/14 10:21:17;;;;;;;;;;;24.50;48.40;23.30;100212.00;;;;5085803;28;19916;-67
2022/09/14 10:24:16;;;;;;;;;;;24.60;48.40;23.30;100214.00;;;;5081449;28;20022;-66
2022/09/14 10:27:24;;;;;;;;;;;24.50;48.40;23.30;100213.00;;;;5102411;27;19994;-66
2022/09/14 10:30:18;;;;;;;;;;;24.50;48.40;23.30;100207.00;;;;5105412;27;20343;-66
2022/09/14 10:33:07;;;;;;;;;;;24.60;48.50;23.30;100209.00;;;;5098705;27;19920;-66
2022/09/14 10:35:55;;;;;;;;;;;24.60;48.40;23.30;100204.00;;;;5094841;28;20338;-66
2022/09/14 10:39:23;;;;;;;;;;;24.50;48.40;23.30;100204.00;;;;5105498;27;19922;-66
2022/09/14 10:42:27;;;;;;;;;;;24.60;48.40;23.30;100197.00;;;;5098072;28;19945;-66
2022/09/14 10:45:17;;;;;;;;;;;24.60;48.40;23.30;100203.00;;;;5094288;27;20381;-66
2022/09/14 10:48:25;;;;;;;;;;;24.60;48.40;23.30;100212.00;;;;5097887;27;19919;-66
2022/09/14 10:51:23;;;;;;;;;;;24.60;48.40;23.30;100212.00;;;;5079189;28;19942;-66
2022/09/14 10:55:10;;;;;;;;;;;24.60;48.50;23.30;100215.00;;;;5088240;28;20002;-66
2022/09/14 10:58:05;;;;;;;;;;;24.60;48.40;23.30;100204.00;;;;5023345;28;19913;-66
2022/09/14 11:00:54;;;;;;;;;;;24.60;48.40;23.30;100201.00;;;;5010038;28;19917;-66
2022/09/14 11:03:44;;;;;;;;;;;24.60;48.40;23.30;100195.00;;;;5103148;27;19958;-66
2022/09/14 11:07:01;;;;;;;;;;;24.60;48.40;23.30;100198.00;;;;5104782;27;19918;-66
2022/09/14 11:09:50;;;;;;;;;;;24.60;48.40;23.30;100198.00;;;;5102248;27;19919;-66
2022/09/14 11:12:44;;;;;;;;;;;24.60;48.40;23.30;100191.00;;;;5104887;27;19915;-66
2022/09/14 11:16:08;;;;;;;;;;;24.60;48.40;23.30;100197.00;;;;5091092;28;19999;-66
2022/09/14 11:19:05;;;;;;;;;;;24.60;48.40;23.30;100185.00;;;;5105324;27;19916;-66
2022/09/14 11:22:14;;;;;;;;;;;24.60;48.40;23.30;100187.00;;;;5082859;28;19965;-66
2022/09/14 11:25:04;;;;;;;;;;;24.60;48.40;23.30;100183.00;;;;5101172;27;19915;-66
2022/09/14 11:27:56;;;;;;;;;;;24.60;48.40;23.30;100178.00;;;;5103749;27;19919;-66
2022/09/14 11:30:46;;;;;;;;;;;24.60;48.40;23.30;100182.00;;;;5085400;28;19919;-66
2022/09/14 11:34:10;;;;;;;;;;;24.50;49.00;23.30;100188.00;;;;5121565;27;19911;-66
2022/09/14 11:37:00;;;;;;;;;;;24.60;48.40;23.30;100188.00;;;;5105100;27;19922;-66
2022/09/14 11:40:21;;;;;;;;;;;24.60;48.40;23.30;100179.00;;;;5085183;27;19924;-66
2022/09/14 11:43:22;;;;;;;;;;;24.60;48.30;23.30;100177.00;;;;5083173;28;19919;-66
2022/09/14 11:46:30;;;;;;;;;;;24.60;48.30;23.30;100170.00;;;;5101185;27;19915;-66
2022/09/14 11:49:38;;;;;;;;;;;24.60;48.30;23.30;100168.00;;;;5088443;27;19915;-66
2022/09/14 11:52:26;;;;;;;;;;;24.60;48.30;23.30;100166.00;;;;5107367;27;19920;-66
2022/09/14 11:55:16;;;;;;;;;;;24.60;48.40;23.30;100173.00;;;;5090612;27;19916;-66
2022/09/14 11:58:04;;;;;;;;;;;24.60;48.30;23.30;100168.00;;;;5081429;28;19929;-66
2022/09/14 12:01:00;;;;;;;;;;;24.70;48.40;23.30;100169.00;;;;5113010;27;20048;-66
2022/09/14 12:03:55;;;;;;;;;;;24.60;48.30;23.30;100169.00;;;;5105912;27;19919;-66
2022/09/14 12:06:43;;;;;;;;;;;24.60;48.30;23.40;100168.00;;;;5101303;27;20286;-66
2022/09/14 12:09:30;;;;;;;;;;;24.60;48.30;23.40;100169.00;;;;5105848;27;19919;-66
2022/09/14 12:12:30;;;;;;;;;;;24.60;48.30;23.40;100169.00;;;;5083662;28;19916;-66
2022/09/14 12:15:23;;;;;;;;;;;24.60;48.30;23.40;100171.00;;;;5075066;28;19912;-66
2022/09/14 12:18:09;;;;;;;;;;;24.60;48.30;23.40;100169.00;;;;5086875;27;19920;-67
2022/09/14 12:21:07;;;;;;;;;;;24.70;48.30;23.40;100159.00;;;;5097492;28;19976;-66
2022/09/14 12:23:56;;;;;;;;;;;24.60;48.30;23.40;100166.00;;;;5087416;27;20369;-66
2022/09/14 12:26:42;;;;;;;;;;;24.70;48.30;23.40;100161.00;;;;5089098;27;20280;-67
2022/09/14 12:29:31;;;;;;;;;;;24.60;48.20;23.40;100164.00;;;;5078080;27;19915;-66
2022/09/14 12:32:38;;;;;;;;;;;24.70;48.30;23.40;100177.00;;;;5089227;27;19912;-66
2022/09/14 12:35:33;;;;;;;;;;;24.70;48.20;23.40;100180.00;;;;5089386;28;20002;-66
2022/09/14 12:38:27;;;;;;;;;;;24.70;48.20;23.40;100174.00;;;;5104486;27;20307;-66
2022/09/14 12:41:13;;;;;;;;;;;24.70;48.20;23.40;100169.00;;;;5104176;27;19920;-67
2022/09/14 12:43:59;;;;;;;;;;;24.70;48.20;23.40;100160.00;;;;5098068;27;19922;-67
2022/09/14 12:46:45;;;;;;;;;;;24.70;48.20;23.40;100157.00;;;;5104478;27;19919;-66
2022/09/14 12:49:33;;;;;;;;;;;24.70;48.20;23.40;100157.00;;;;5101273;28;19915;-66
2022/09/14 12:52:30;;;;;;;;;;;24.70;48.20;23.40;100157.00;;;;5090330;27;19912;-66
2022/09/14 12:55:50;;;;;;;;;;;24.70;48.20;23.40;100156.00;;;;5077201;28;20344;-66
2022/09/14 12:58:54;;;;;;;;;;;24.70;48.10;23.40;100150.00;;;;5102140;28;20311;-66
2022/09/14 13:02:08;;;;;;;;;;;24.70;48.20;23.40;100146.00;;;;5089780;27;19923;-66
2022/09/14 13:04:55;;;;;;;;;;;24.70;48.20;23.40;100149.00;;;;5099321;28;20343;-66
2022/09/14 13:07:41;;;;;;;;;;;24.70;48.20;23.40;100150.00;;;;5098453;28;19966;-67
2022/09/14 13:10:32;;;;;;;;;;;24.70;48.20;23.40;100138.00;;;;5078268;28;19912;-66
2022/09/14 13:13:21;;;;;;;;;;;24.70;48.10;23.40;100147.00;;;;5092893;27;19919;-66
2022/09/14 13:16:07;;;;;;;;;;;24.70;48.10;23.40;100136.00;;;;5098421;28;19973;-66
2022/09/14 13:18:59;;;;;;;;;;;24.70;48.10;23.40;100140.00;;;;5086434;28;19911;-66
2022/09/14 13:21:47;;;;;;;;;;;24.60;48.10;23.40;100135.00;;;;5081387;28;20337;-66
2022/09/14 13:24:33;;;;;;;;;;;24.70;48.10;23.40;100129.00;;;;5085315;28;20385;-66
2022/09/14 13:27:25;;;;;;;;;;;24.70;48.10;23.40;100117.00;;;;5097564;28;19935;-66
2022/09/14 13:30:22;;;;;;;;;;;24.70;48.10;23.40;100110.00;;;;5091764;28;20014;-66
2022/09/14 13:33:17;;;;;;;;;;;24.70;48.10;23.40;100106.00;;;;5079442;28;19912;-66
2022/09/14 13:36:03;;;;;;;;;;;24.70;48.10;23.40;100112.00;;;;5097153;28;20427;-66
2022/09/14 13:38:49;;;;;;;;;;;24.70;48.10;23.40;100108.00;;;;5093005;28;20133;-66
2022/09/14 13:41:35;;;;;;;;;;;24.70;48.10;23.40;100108.00;;;;5081764;28;20005;-66
2022/09/14 13:44:23;;;;;;;;;;;24.80;48.10;23.40;100104.00;;;;5087885;28;20276;-66
2022/09/14 13:47:12;;;;;;;;;;;24.70;48.00;23.40;100107.00;;;;5070334;28;20286;-66